DW4152 Weather Reports


time (UTC)temp
F
wind
direction
speed
knots
gust
knots
rain 1hr
in
rain 24hr
in
rain mn
in
humidity
%
barometer
mb
20240614111525 66 314 0.0 0.0 0.00 0.04 0.01 97 1013.8
20240614110016 66 314 0.0 0.0 0.00 0.04 0.01 97 1013.6
20240614104515 66 314 0.0 0.0 0.01 0.04 0.01 97 1013.4
20240614103014 65 314 0.0 0.0 0.01 0.04 0.01 97 1013.5
20240614101529 65 314 0.0 0.0 0.01 0.04 0.01 96 1013.4
20240614100010 66 314 0.0 0.0 0.01 0.04 0.01 96 1013.4
20240614094510 66 314 0.0 0.0 0.00 0.03 0.00 96 1013.2
20240614093009 66 314 0.0 0.0 0.00 0.03 0.00 96 1013.4
20240614091508 66 314 0.0 0.0 0.00 0.03 0.00 96 1013.3
20240614090007 66 314 0.0 0.0 0.00 0.03 0.00 95 1013.3
20240614084506 66 314 0.0 0.0 0.00 0.03 0.00 95 1013.6
20240614083007 66 314 0.0 0.0 0.00 0.03 0.00 95 1013.6
20240614081504 66 314 0.0 0.0 0.00 0.03 0.00 95 1013.6
20240614080003 67 314 0.0 0.0 0.00 0.03 0.00 94 1013.4
20240614074503 67 314 0.0 0.0 0.00 0.03 0.00 94 1013.6
20240614073000 67 314 0.0 0.0 0.00 0.03 0.00 94 1013.6
20240614071600 67 314 0.0 0.0 0.00 0.03 0.00 94 1013.7
20240614070100 67 314 0.0 0.0 0.00 0.03 0.00 93 1013.7
20240614064558 67 314 0.0 0.0 0.00 0.04 0.00 93 1013.6
20240614063058 68 314 0.0 0.0 0.00 0.04 0.00 92 1013.6
20240614061555 68 314 0.0 0.0 0.00 0.04 0.00 93 1013.5
20240614060101 68 314 0.0 0.0 0.00 0.04 0.00 91 1013.7
20240614054552 69 314 0.0 0.0 0.00 0.04 0.00 91 1013.7
20240614053049 69 314 0.0 0.0 0.00 0.04 0.00 90 1014.1
20240614051546 70 314 0.0 0.0 0.00 0.04 0.00 89 1014.1
20240614050103 70 314 0.0 0.0 0.00 0.04 0.00 88 1014.2
20240614044547 71 314 0.0 0.0 0.00 0.04 0.00 88 1014.4
20240614043040 71 314 0.0 0.0 0.00 0.04 0.00 87 1014.7
20240614041538 71 314 0.0 0.0 0.00 0.04 0.00 87 1014.6
20240614040036 71 314 0.0 0.0 0.00 0.04 0.00 87 1014.5
20240614034535 71 314 0.0 0.0 0.00 0.04 0.04 89 1014.5
20240614033037 71 314 0.0 0.0 0.00 0.04 0.04 89 1014.7
20240614031536 71 314 0.0 0.9 0.00 0.04 0.04 89 1014.8
20240614030040 72 319 0.0 0.0 0.00 0.04 0.04 89 1014.7
20240614024536 72 319 0.0 0.0 0.00 0.04 0.04 90 1014.8
20240614023039 72 319 0.0 0.0 0.00 0.04 0.04 88 1014.7
20240614021532 73 319 0.0 0.0 0.00 0.04 0.04 87 1014.5
20240614020053 73 319 0.0 0.0 0.00 0.04 0.04 86 1014.6
20240614014531 74 319 0.0 0.0 0.01 0.04 0.04 83 1014.4
20240614013037 75 319 0.0 0.0 0.01 0.04 0.04 80 1014.2
20240614011531 75 319 0.0 0.0 0.01 0.04 0.04 78 1014.1
20240614010030 76 319 0.0 0.0 0.01 0.04 0.04 75 1014.2
20240614004530 77 319 0.0 0.0 0.00 0.04 0.03 74 1014.1
20240614003029 78 319 0.0 0.0 0.00 0.04 0.03 73 1014.0
20240614001528 79 319 0.0 0.0 0.00 0.04 0.03 72 1014.1
20240614000029 80 319 0.0 0.0 0.00 0.04 0.03 71 1014.3
20240613234528 80 319 0.0 0.0 0.00 0.04 0.03 71 1014.2
20240613233031 81 319 0.0 0.0 0.00 0.04 0.03 68 1014.2
20240613231530 81 319 0.0 0.0 0.00 0.04 0.03 66 1014.2
20240613230026 82 319 0.0 0.0 0.00 0.04 0.03 63 1014.0
20240613224526 83 319 0.0 1.7 0.00 0.04 0.03 63 1014.0
20240613223026 84 319 0.0 0.0 0.00 0.04 0.03 63 1013.9
20240613221525 85 319 0.0 2.6 0.00 0.04 0.03 61 1013.7
20240613220026 86 272 0.0 1.7 0.00 0.04 0.03 58 1013.7
20240613214533 86 344 0.0 0.9 0.00 0.04 0.03 60 1013.9
20240613213022 86 228 0.0 1.7 0.00 0.04 0.03 59 1013.9
20240613211520 86 275 0.0 2.6 0.00 0.04 0.03 57 1013.9
20240613210122 86 312 0.0 0.0 0.00 0.04 0.03 63 1013.9
20240613204519 85 299 0.0 0.0 0.00 0.04 0.03 71 1014.1
20240613203018 85 299 0.0 0.0 0.00 0.04 0.03 68 1014.2
20240613201520 86 299 0.0 0.0 0.00 0.04 0.03 62 1014.4
20240613200027 87 299 0.0 0.0 0.00 0.04 0.03 61 1014.2
20240613194525 88 299 0.0 0.0 0.00 0.05 0.03 57 1014.4
20240613193020 90 298 0.0 2.6 0.00 0.05 0.03 52 1014.5
20240613191510 88 273 0.0 0.9 0.01 0.05 0.03 58 1014.7
20240613190010 85 240 0.0 0.0 0.01 0.05 0.03 65 1015.0
20240613184509 85 226 0.0 0.0 0.01 0.05 0.03 63 1015.2
20240613183011 87 225 0.0 0.0 0.00 0.04 0.02 64 1015.3
20240613181508 88 225 0.0 0.0 0.00 0.04 0.02 60 1015.4
20240613180008 88 248 0.0 0.0 0.00 0.04 0.02 60 1015.5
20240613174506 88 250 0.0 1.7 0.00 0.04 0.02 55 1015.6
20240613173004 88 209 0.0 4.3 0.00 0.04 0.02 60 1015.6
20240613171503 87 337 0.0 0.9 0.00 0.04 0.02 60 1015.6
20240613170059 86 52 0.0 0.9 0.00 0.04 0.02 58 1015.8
20240613164609 86 70 0.0 2.6 0.00 0.05 0.02 59 1015.8
20240613163103 86 217 0.0 2.6 0.00 0.05 0.02 63 1016.0
20240613161554 85 222 0.0 1.7 0.00 0.05 0.02 62 1016.2
20240613160049 85 219 0.0 0.0 0.00 0.05 0.02 66 1016.3
20240613154544 84 217 0.0 0.9 0.00 0.05 0.02 62 1016.5
20240613153043 83 216 0.0 0.0 0.00 0.05 0.02 67 1016.7
20240613151547 82 202 0.0 0.0 0.00 0.05 0.02 67 1016.8
20240613150036 81 245 0.0 0.0 0.00 0.05 0.02 66 1016.9
20240613144533 81 261 0.0 0.0 0.00 0.05 0.02 69 1016.8
20240613143028 79 261 0.0 0.0 0.01 0.05 0.02 72 1016.8
20240613141523 78 262 0.0 0.9 0.01 0.05 0.02 75 1016.7
20240613140020 77 257 0.0 0.9 0.01 0.05 0.02 83 1016.9
20240613134518 75 271 0.0 0.0 0.01 0.05 0.02 86 1017.0
20240613133010 73 271 0.0 0.0 0.00 0.04 0.01 89 1017.1
20240613131509 73 271 0.0 0.9 0.00 0.04 0.01 89 1017.3
20240613130003 72 304 0.0 0.0 0.00 0.04 0.01 91 1017.3
20240613124600 71 315 0.0 0.0 0.00 0.04 0.01 93 1017.3
20240613123054 70 319 0.0 0.0 0.00 0.04 0.01 95 1017.3
20240613121554 69 319 0.0 0.0 0.00 0.04 0.01 97 1017.2
20240613120052 68 319 0.0 0.0 0.00 0.04 0.01 98 1017.1
20240613114549 67 319 0.0 0.0 0.00 0.04 0.01 98 1017.0
20240613113101 66 319 0.0 0.0 0.00 0.04 0.01 97 1016.9